MST,Max TemperatureF,Mean TemperatureF,Min TemperatureF,Max Dew PointF,MeanDew PointF,Min DewpointF,Max Humidity, Mean Humidity, Min Humidity, Max Sea Level PressureIn, Mean Sea Level PressureIn, Min Sea Level PressureIn, Max VisibilityMiles, Mean VisibilityMiles, Min VisibilityMiles, Max Wind SpeedMPH, Mean Wind SpeedMPH, Max Gust SpeedMPH,PrecipitationIn, CloudCover, Events, WindDirDegrees
2012-12-1,57,48,38,33,27,23,64,46,28,29.82,29.76,29.64,10,10,10,30,10,35,0.00,1,,261
2012-12-2,62,50,37,32,27,21,70,49,27,29.75,29.50,29.30,10,10,10,40,16,53,0.00,1,,207
2012-12-3,48,38,27,27,18,7,85,52,19,30.18,29.93,29.60,10,10,10,35,8,44,0.00,1,,249
2012-12-4,51,38,24,24,17,10,68,45,21,30.21,30.09,29.96,10,10,10,18,4,24,0.00,1,,231
2012-12-5,61,49,36,33,28,23,64,46,28,29.95,29.80,29.64,10,10,10,26,7,39,0.00,1,,290
2012-12-6,39,33,26,25,20,16,84,62,40,30.06,29.95,29.84,10,9,2,23,8,30,T,5,Snow,334
2012-12-7,33,27,21,27,21,8,92,69,46,29.98,29.88,29.72,10,7,1,22,7,29,0.01,5,Snow,171
2012-12-8,34,21,8,21,11,3,88,62,35,30.21,29.83,29.61,10,5,0,40,22,52,T,6,Fog-Snow,335
2012-12-9,20,11,1,8,3,-2,88,67,45,30.45,30.23,29.99,10,9,4,30,7,38,T,4,Snow,299
2012-12-10,29,23,17,21,14,0,84,60,35,30.00,29.90,29.79,10,8,2,30,12,40,T,6,Snow,317
2012-12-11,43,30,16,18,11,4,52,42,32,29.98,29.74,29.56,10,10,10,20,7,23,0.00,4,,201
2012-12-12,51,38,25,24,19,17,81,54,27,29.86,29.64,29.50,10,10,10,31,10,39,0.00,1,,276
2012-12-13,51,36,20,25,20,15,88,58,27,29.95,29.87,29.76,10,10,10,16,5,25,0.00,1,,188
2012-12-14,49,37,25,23,18,14,69,47,24,29.77,29.65,29.55,10,10,10,14,6,24,0.00,1,,308
2012-12-15,33,27,21,25,21,15,85,72,59,29.83,29.74,29.65,10,10,7,23,8,33,0.00,6,,46
2012-12-16,36,26,16,16,12,9,77,55,32,29.82,29.71,29.62,10,10,10,12,4,13,0.00,3,,297
2012-12-17,48,30,12,28,18,7,92,61,29,29.69,29.50,29.31,10,10,10,26,8,32,T,2,,280
2012-12-18,33,22,11,19,4,-6,78,49,20,29.88,29.74,29.52,10,10,10,24,9,36,0.00,0,,292
2012-12-19,27,17,7,1,-2,-9,58,45,32,30.21,30.08,29.88,10,10,10,21,8,25,0.00,0,,283
2012-12-20,43,27,10,6,2,-9,45,33,20,30.17,30.11,30.04,10,10,10,13,4,17,0.00,0,,201
2012-12-21,51,39,27,12,6,2,38,27,15,30.04,29.97,29.89,10,10,10,13,5,14,0.00,0,,301
2012-12-22,49,33,17,14,8,5,73,45,17,30.04,29.90,29.74,10,10,10,21,8,26,0.00,0,,301
2012-12-23,37,25,12,20,13,7,92,68,44,30.04,29.95,29.72,10,10,5,23,7,29,0.00,1,,298
2012-12-24,25,13,1,16,6,-3,88,74,60,30.34,30.01,29.83,10,5,1,23,11,35,T,6,Snow,335
2012-12-25,17,7,-4,7,-2,-8,87,77,66,30.44,30.24,30.07,10,6,1,16,4,24,T,6,Snow,160
2012-12-26,19,14,8,12,8,2,88,74,59,30.05,29.79,29.64,10,5,1,15,5,26,0.06,7,Snow,341
2012-12-27,20,16,11,11,8,4,92,77,62,30.04,29.85,29.66,10,6,1,23,11,32,T,7,Snow,331
2012-12-28,27,20,12,20,11,2,74,67,60,30.17,30.07,29.92,10,9,4,13,5,17,0.01,4,Snow,263
2012-12-29,26,18,10,12,6,1,67,56,44,30.17,30.08,29.98,10,10,10,15,6,21,0.00,0,,237
2012-12-30,26,18,10,13,4,-2,76,58,39,30.18,30.11,30.00,10,10,10,14,5,17,0.00,0,,291
2012-12-31,24,16,8,11,6,1,73,62,50,30.19,30.14,30.07,10,10,10,13,4,13,0.00,1,,280